createdAt,value
2022-07-29T00:00:53.638Z,1.10
2022-07-29T00:03:27.804Z,1.20
2022-07-29T00:06:01.838Z,1.20
2022-07-29T00:08:35.892Z,1.30
2022-07-29T00:11:10.142Z,1.20
2022-07-29T00:13:49.022Z,1.10
2022-07-29T00:16:25.090Z,1.10
2022-07-29T00:19:02.255Z,1.30
2022-07-29T00:21:38.185Z,1.40
2022-07-29T00:24:13.078Z,1.60
2022-07-29T00:26:47.408Z,1.30
2022-07-29T00:29:37.117Z,1.40
2022-07-29T00:32:12.172Z,1.50
2022-07-29T00:35:04.256Z,1.50
2022-07-29T00:37:39.656Z,1.40
2022-07-29T00:40:15.761Z,1.50
2022-07-29T00:42:51.858Z,1.10
2022-07-29T00:45:26.151Z,1.50
2022-07-29T00:48:02.714Z,1.10
2022-07-29T00:50:38.161Z,1.10
2022-07-29T00:53:15.672Z,1.50
2022-07-29T00:55:49.985Z,1.50
2022-07-29T00:58:27.185Z,1.50
2022-07-29T01:01:03.125Z,1.30
2022-07-29T01:03:37.828Z,1.40
2022-07-29T01:06:12.288Z,1.60
2022-07-29T01:08:47.000Z,1.40
2022-07-29T01:11:22.395Z,1.20
2022-07-29T01:13:58.047Z,1.50
2022-07-29T01:16:42.226Z,1.50
2022-07-29T01:19:47.527Z,1.50
2022-07-29T01:22:39.454Z,1.70
2022-07-29T01:25:56.073Z,1.50
2022-07-29T01:29:07.496Z,1.30
2022-07-29T01:32:00.555Z,1.60
2022-07-29T01:34:47.974Z,1.40
2022-07-29T01:37:29.281Z,1.60
2022-07-29T01:40:07.330Z,1.80
2022-07-29T01:42:46.882Z,1.80
2022-07-29T01:45:26.958Z,1.90
2022-07-29T01:48:08.962Z,1.60
2022-07-29T01:50:50.546Z,1.80
2022-07-29T01:53:38.008Z,2.20
2022-07-29T01:56:16.254Z,1.40
2022-07-29T01:58:54.409Z,1.70
2022-07-29T02:01:32.290Z,1.50
2022-07-29T02:04:10.855Z,1.60
2022-07-29T02:06:49.973Z,1.20
2022-07-29T02:09:26.985Z,1.70
2022-07-29T02:12:04.474Z,2.10
2022-07-29T02:14:42.967Z,1.90
2022-07-29T02:17:21.774Z,2.20
2022-07-29T02:19:58.150Z,1.50
2022-07-29T02:22:40.266Z,2.30
2022-07-29T02:25:16.698Z,1.70
2022-07-29T02:27:53.786Z,2.00
2022-07-29T02:30:29.718Z,2.00
2022-07-29T02:33:05.640Z,1.60
2022-07-29T02:35:40.724Z,1.90
2022-07-29T02:38:37.470Z,1.70
2022-07-29T02:41:17.577Z,2.20
2022-07-29T02:43:58.817Z,1.50
2022-07-29T02:46:36.910Z,1.70
2022-07-29T02:49:18.236Z,2.10
2022-07-29T02:51:59.314Z,2.20
2022-07-29T02:54:44.647Z,2.10
2022-07-29T02:57:31.002Z,1.80
2022-07-29T03:00:10.608Z,1.90
2022-07-29T03:02:52.854Z,2.30
2022-07-29T03:05:28.758Z,1.80
2022-07-29T03:08:08.756Z,1.90
2022-07-29T03:10:46.643Z,1.60
2022-07-29T03:13:21.057Z,1.90
2022-07-29T03:15:56.566Z,1.70
2022-07-29T03:18:31.512Z,2.00
2022-07-29T03:21:06.734Z,1.90
2022-07-29T03:23:45.673Z,1.90
2022-07-29T03:26:19.512Z,2.40
2022-07-29T03:28:53.346Z,1.80
2022-07-29T03:31:27.798Z,2.20
2022-07-29T03:34:02.022Z,2.00
2022-07-29T03:36:35.972Z,1.90
2022-07-29T03:39:11.527Z,1.90
2022-07-29T03:41:47.189Z,2.00
2022-07-29T03:44:23.069Z,2.20
2022-07-29T03:47:03.030Z,2.00
2022-07-29T03:49:40.889Z,2.10
2022-07-29T03:52:14.917Z,1.80
2022-07-29T03:54:50.352Z,2.10
2022-07-29T03:57:29.441Z,2.30
2022-07-29T04:00:04.657Z,1.90
2022-07-29T04:02:40.555Z,2.10
2022-07-29T04:05:19.593Z,2.00
2022-07-29T04:07:53.990Z,2.30
2022-07-29T04:10:31.801Z,2.10
2022-07-29T04:13:06.220Z,2.10
2022-07-29T04:15:40.281Z,2.00
2022-07-29T04:18:14.309Z,2.50
2022-07-29T04:20:48.367Z,2.20
2022-07-29T04:23:22.595Z,1.70
2022-07-29T04:25:56.894Z,2.50
2022-07-29T04:28:31.171Z,2.40
2022-07-29T04:31:05.245Z,1.80
2022-07-29T04:33:39.463Z,2.50
2022-07-29T04:36:28.759Z,2.10
2022-07-29T04:39:03.766Z,1.70
2022-07-29T04:41:38.123Z,2.00
2022-07-29T04:44:12.336Z,2.10
2022-07-29T04:46:46.381Z,2.00
2022-07-29T04:49:20.314Z,1.90
2022-07-29T04:51:54.327Z,2.00
2022-07-29T04:54:28.235Z,2.30
2022-07-29T04:57:02.467Z,2.30
2022-07-29T04:59:36.406Z,2.20
2022-07-29T05:02:10.305Z,1.90
2022-07-29T05:04:44.195Z,2.10
2022-07-29T05:07:18.108Z,1.90
2022-07-29T05:09:51.987Z,2.10
2022-07-29T05:12:25.753Z,1.70
2022-07-29T05:14:59.745Z,2.10
2022-07-29T05:17:34.795Z,1.80
2022-07-29T05:20:11.944Z,1.90
2022-07-29T05:22:45.890Z,2.20
2022-07-29T05:25:20.594Z,2.00
2022-07-29T05:27:54.848Z,1.80
2022-07-29T05:30:28.972Z,1.80
2022-07-29T05:33:03.364Z,1.80
2022-07-29T05:35:38.268Z,1.70
2022-07-29T05:38:12.138Z,1.70
2022-07-29T05:40:47.003Z,1.60
2022-07-29T05:43:22.072Z,1.60
2022-07-29T05:45:56.123Z,1.80
2022-07-29T05:48:30.632Z,1.40
2022-07-29T05:51:06.049Z,1.60
2022-07-29T05:53:40.011Z,1.70
2022-07-29T05:56:13.909Z,1.90
2022-07-29T05:58:47.952Z,1.40
2022-07-29T06:01:21.908Z,1.80
2022-07-29T06:03:56.312Z,1.60
2022-07-29T06:06:32.950Z,1.50
2022-07-29T06:09:12.331Z,1.40
2022-07-29T06:11:47.619Z,1.70
2022-07-29T06:14:23.436Z,1.60
2022-07-29T06:17:02.114Z,1.60
2022-07-29T06:19:37.914Z,1.40
2022-07-29T06:22:12.748Z,1.50
2022-07-29T06:24:49.608Z,1.60
2022-07-29T06:27:24.972Z,1.80
2022-07-29T06:30:00.169Z,1.40
2022-07-29T06:32:45.185Z,1.60
2022-07-29T06:35:38.974Z,1.30
2022-07-29T06:38:30.950Z,1.40
2022-07-29T06:41:07.152Z,1.50
2022-07-29T06:43:51.879Z,1.60
2022-07-29T06:46:28.713Z,1.20
2022-07-29T06:49:03.742Z,1.30
2022-07-29T06:51:40.847Z,1.10
2022-07-29T06:54:15.153Z,1.20
2022-07-29T06:56:51.860Z,1.40
2022-07-29T06:59:35.114Z,1.60
2022-07-29T07:02:12.737Z,1.20
2022-07-29T07:04:46.755Z,1.30
2022-07-29T07:07:24.346Z,1.20
2022-07-29T07:09:58.525Z,1.40
2022-07-29T07:12:52.452Z,1.10
2022-07-29T07:15:38.936Z,1.30
2022-07-29T07:18:15.911Z,0.90
2022-07-29T07:20:51.584Z,0.90
2022-07-29T07:23:28.004Z,1.10
2022-07-29T07:26:02.518Z,1.20
2022-07-29T07:28:39.100Z,1.20
2022-07-29T07:31:13.565Z,1.20
2022-07-29T07:33:48.836Z,1.10
2022-07-29T07:36:30.147Z,1.30
2022-07-29T07:39:06.395Z,1.20
2022-07-29T07:41:45.002Z,1.30
2022-07-29T07:44:20.459Z,1.40
2022-07-29T07:46:55.837Z,1.40
2022-07-29T07:49:31.872Z,1.30
2022-07-29T07:52:09.614Z,1.30
2022-07-29T07:54:44.136Z,1.30
2022-07-29T07:57:21.659Z,1.50
2022-07-29T07:59:57.950Z,1.30
2022-07-29T08:02:32.881Z,1.20
2022-07-29T08:05:12.687Z,1.10
2022-07-29T08:07:51.146Z,1.10
2022-07-29T08:10:45.029Z,1.20
2022-07-29T08:13:26.234Z,1.00
2022-07-29T08:16:03.117Z,1.20
2022-07-29T08:18:37.868Z,1.30
2022-07-29T08:21:15.036Z,1.50
2022-07-29T08:24:00.796Z,1.70
2022-07-29T08:26:37.472Z,1.10
2022-07-29T08:29:15.038Z,1.70
2022-07-29T08:31:53.312Z,2.00
2022-07-29T08:34:29.552Z,1.00
2022-07-29T08:37:07.237Z,1.10
2022-07-29T08:39:44.049Z,1.00
2022-07-29T08:42:19.491Z,1.20
2022-07-29T08:44:55.834Z,1.10
2022-07-29T08:47:32.069Z,1.10
2022-07-29T08:50:08.331Z,1.00
2022-07-29T08:52:44.402Z,1.20
2022-07-29T08:55:22.554Z,1.00
2022-07-29T08:57:58.946Z,1.10
2022-07-29T09:00:43.607Z,1.10
2022-07-29T09:03:23.057Z,1.10
2022-07-29T09:06:02.913Z,1.80
2022-07-29T09:08:42.509Z,1.30
2022-07-29T09:11:26.502Z,1.20
2022-07-29T09:14:02.378Z,1.30
2022-07-29T09:17:00.063Z,1.10
2022-07-29T09:19:39.267Z,1.00
2022-07-29T09:22:40.044Z,1.10
2022-07-29T09:25:18.216Z,1.10
2022-07-29T09:27:55.487Z,1.20
2022-07-29T09:30:36.219Z,1.20
2022-07-29T09:33:55.548Z,1.10
2022-07-29T09:36:45.782Z,1.60
2022-07-29T09:39:34.867Z,1.80
2022-07-29T09:42:11.074Z,1.10
2022-07-29T09:44:51.435Z,1.20
2022-07-29T09:47:42.274Z,1.60
2022-07-29T09:50:16.956Z,1.30
2022-07-29T09:52:55.060Z,1.10
2022-07-29T09:55:30.063Z,1.20
2022-07-29T09:58:21.798Z,1.00
2022-07-29T10:00:58.359Z,1.10
2022-07-29T10:03:33.766Z,1.30
2022-07-29T10:06:14.771Z,1.10
2022-07-29T10:08:50.662Z,1.60
2022-07-29T10:11:25.186Z,1.30
2022-07-29T10:14:22.095Z,1.50
2022-07-29T10:16:58.335Z,1.30
2022-07-29T10:19:35.235Z,1.20
2022-07-29T10:22:15.119Z,4.60
2022-07-29T10:24:49.700Z,1.30
2022-07-29T10:27:24.286Z,1.60
2022-07-29T10:29:59.441Z,3.80
2022-07-29T10:32:54.404Z,2.20
2022-07-29T10:35:57.409Z,1.50
2022-07-29T10:38:55.006Z,2.90
2022-07-29T10:42:01.563Z,1.70
2022-07-29T10:44:41.955Z,1.30
2022-07-29T10:47:27.213Z,1.20
2022-07-29T10:50:07.254Z,1.30
2022-07-29T10:53:01.022Z,1.20
2022-07-29T10:55:57.493Z,1.40
2022-07-29T10:58:35.703Z,1.30
2022-07-29T11:01:37.420Z,2.70
2022-07-29T11:04:13.335Z,1.40
2022-07-29T11:07:17.461Z,1.40
2022-07-29T11:10:31.372Z,1.10
2022-07-29T11:13:06.270Z,1.20
2022-07-29T11:15:59.417Z,1.10
2022-07-29T11:18:34.705Z,1.40
2022-07-29T11:21:54.132Z,1.20
2022-07-29T11:24:37.022Z,1.30
2022-07-29T11:27:21.178Z,1.30
2022-07-29T11:30:01.105Z,1.80
2022-07-29T11:32:48.747Z,1.10
2022-07-29T11:35:38.326Z,1.60
2022-07-29T11:38:37.620Z,1.60
2022-07-29T11:41:36.996Z,1.50
2022-07-29T11:44:12.085Z,1.50
2022-07-29T11:46:55.059Z,1.40
2022-07-29T11:49:32.115Z,1.30
2022-07-29T11:52:08.357Z,1.40
2022-07-29T11:54:57.286Z,1.50
2022-07-29T11:58:04.169Z,1.20
2022-07-29T12:00:50.560Z,1.00
2022-07-29T12:03:35.455Z,1.60
2022-07-29T12:06:18.493Z,1.20
2022-07-29T12:08:55.154Z,1.20
2022-07-29T12:11:30.091Z,1.20
2022-07-29T12:14:05.435Z,1.30
2022-07-29T12:16:41.931Z,1.30
2022-07-29T12:19:16.576Z,1.70
2022-07-29T12:21:56.433Z,1.80
2022-07-29T12:24:46.832Z,1.50
2022-07-29T12:27:29.333Z,1.50
2022-07-29T12:30:06.365Z,1.70
2022-07-29T12:32:44.954Z,5.50
2022-07-29T12:35:22.454Z,3.00
2022-07-29T12:37:57.053Z,1.60
2022-07-29T12:40:31.354Z,2.60
2022-07-29T12:43:20.353Z,1.50
2022-07-29T12:45:58.125Z,1.50
2022-07-29T12:48:45.003Z,1.30
2022-07-29T12:51:19.778Z,1.40
2022-07-29T12:54:11.638Z,1.40
2022-07-29T12:56:47.290Z,2.00
2022-07-29T12:59:24.313Z,1.40
2022-07-29T13:02:01.260Z,1.80
2022-07-29T13:04:43.758Z,1.30
2022-07-29T13:07:55.882Z,1.60
2022-07-29T13:10:30.462Z,1.70
2022-07-29T13:13:13.788Z,1.90
2022-07-29T13:16:07.550Z,1.50
2022-07-29T13:18:42.915Z,1.70
2022-07-29T13:21:19.404Z,1.60
2022-07-29T13:23:54.177Z,1.80
2022-07-29T13:26:30.411Z,1.60
2022-07-29T13:29:06.106Z,1.50
2022-07-29T13:31:41.258Z,1.80
2022-07-29T13:34:15.625Z,1.50
2022-07-29T13:36:55.622Z,1.50
2022-07-29T13:39:30.612Z,1.80
2022-07-29T13:42:10.459Z,1.70
2022-07-29T13:44:45.841Z,1.50
2022-07-29T13:47:32.628Z,1.90
2022-07-29T13:50:11.132Z,2.00
2022-07-29T13:52:49.413Z,1.60
2022-07-29T13:55:23.865Z,2.20
2022-07-29T13:57:58.989Z,3.80
2022-07-29T14:00:33.580Z,1.50
2022-07-29T14:03:09.133Z,2.10
2022-07-29T14:05:43.961Z,1.90
2022-07-29T14:08:19.842Z,1.80
2022-07-29T14:11:01.331Z,2.20
2022-07-29T14:13:36.165Z,1.70
2022-07-29T14:16:11.582Z,2.30
2022-07-29T14:18:46.668Z,2.10
2022-07-29T14:21:21.368Z,2.10
2022-07-29T14:23:56.100Z,2.00
2022-07-29T14:26:32.229Z,2.00
2022-07-29T14:29:08.425Z,1.40
2022-07-29T14:31:50.695Z,1.60
2022-07-29T14:34:26.418Z,1.80
2022-07-29T14:37:00.694Z,1.80
2022-07-29T14:39:43.230Z,1.60
2022-07-29T14:42:18.149Z,1.90
2022-07-29T14:44:53.894Z,1.30
2022-07-29T14:47:28.620Z,2.00
2022-07-29T14:50:06.414Z,1.60
2022-07-29T14:52:41.411Z,1.80
2022-07-29T14:55:19.979Z,1.60
2022-07-29T14:58:03.082Z,1.50
2022-07-29T15:00:47.687Z,1.60
2022-07-29T15:03:24.734Z,1.70
2022-07-29T15:06:00.195Z,1.40
2022-07-29T15:08:35.514Z,1.60
2022-07-29T15:11:09.953Z,2.00
2022-07-29T15:13:44.543Z,1.80
2022-07-29T15:16:21.007Z,1.80
2022-07-29T15:18:57.781Z,1.80
2022-07-29T15:21:35.714Z,1.90
2022-07-29T15:24:16.013Z,2.10
2022-07-29T15:26:52.396Z,1.90
2022-07-29T15:29:28.041Z,1.80
2022-07-29T15:32:04.346Z,2.00
2022-07-29T15:34:39.205Z,2.10
2022-07-29T15:37:13.819Z,2.00
2022-07-29T15:39:48.160Z,1.90
2022-07-29T15:42:22.458Z,2.20
2022-07-29T15:44:56.973Z,2.00
2022-07-29T15:47:31.108Z,2.20
2022-07-29T15:50:05.296Z,1.90
2022-07-29T15:52:39.527Z,2.20
2022-07-29T15:55:16.466Z,2.20
2022-07-29T15:57:51.192Z,2.00
2022-07-29T16:00:25.702Z,1.80
2022-07-29T16:03:00.248Z,1.70
2022-07-29T16:05:34.324Z,2.00
2022-07-29T16:08:09.260Z,1.30
2022-07-29T16:10:43.414Z,2.00
2022-07-29T16:13:18.843Z,1.70
2022-07-29T16:16:02.120Z,2.30
2022-07-29T16:18:36.776Z,2.60
2022-07-29T16:21:10.833Z,2.30
2022-07-29T16:23:45.455Z,1.90
2022-07-29T16:26:19.742Z,1.80
2022-07-29T16:28:53.924Z,2.10
2022-07-29T16:31:30.145Z,1.80
2022-07-29T16:34:06.533Z,2.20
2022-07-29T16:36:47.711Z,2.10
2022-07-29T16:39:28.648Z,1.70
2022-07-29T16:42:05.565Z,2.00
2022-07-29T16:44:40.804Z,2.20
2022-07-29T16:47:15.508Z,2.50
2022-07-29T16:49:52.498Z,1.90
2022-07-29T16:52:36.242Z,2.20
2022-07-29T16:55:18.567Z,2.20
2022-07-29T16:57:56.853Z,2.00
2022-07-29T17:00:36.951Z,1.90
2022-07-29T17:03:14.080Z,1.80
2022-07-29T17:05:54.242Z,2.50
2022-07-29T17:08:29.117Z,3.10
2022-07-29T17:11:04.214Z,3.20
2022-07-29T17:13:47.452Z,2.30
2022-07-29T17:16:28.065Z,2.10
2022-07-29T17:19:04.456Z,2.10
2022-07-29T17:21:48.827Z,2.00
2022-07-29T17:24:23.849Z,2.00
2022-07-29T17:26:58.790Z,1.90
2022-07-29T17:29:34.987Z,2.50
2022-07-29T17:32:10.247Z,2.20
2022-07-29T17:34:45.731Z,2.10
2022-07-29T17:37:20.279Z,2.30
2022-07-29T17:39:57.374Z,2.60
2022-07-29T17:42:37.196Z,2.00
2022-07-29T17:45:12.568Z,2.30
2022-07-29T17:47:47.299Z,2.10
2022-07-29T17:50:21.872Z,2.10
2022-07-29T17:52:58.169Z,1.80
2022-07-29T17:55:32.636Z,2.30
2022-07-29T17:58:08.933Z,2.20
2022-07-29T18:00:43.507Z,2.20
2022-07-29T18:03:17.551Z,2.30
2022-07-29T18:05:52.137Z,2.00
2022-07-29T18:08:26.433Z,2.20
2022-07-29T18:11:00.353Z,2.60
2022-07-29T18:13:35.449Z,2.30
2022-07-29T18:16:11.914Z,2.50
2022-07-29T18:18:46.907Z,2.20
2022-07-29T18:21:37.456Z,2.40
2022-07-29T18:24:16.261Z,2.40
2022-07-29T18:26:50.234Z,2.50
2022-07-29T18:29:24.711Z,2.50
2022-07-29T18:32:00.075Z,2.40
2022-07-29T18:34:34.920Z,2.40
2022-07-29T18:37:09.080Z,2.70
2022-07-29T18:39:43.384Z,2.40
2022-07-29T18:42:18.337Z,2.60
2022-07-29T18:44:52.671Z,2.40
2022-07-29T18:47:32.281Z,2.50
2022-07-29T18:50:11.959Z,2.60
2022-07-29T18:52:47.761Z,3.10
2022-07-29T18:55:22.214Z,3.40
2022-07-29T18:57:57.508Z,3.10
2022-07-29T19:00:32.291Z,2.90
2022-07-29T19:03:06.850Z,2.70
2022-07-29T19:05:41.082Z,2.90
2022-07-29T19:08:15.685Z,2.60
2022-07-29T19:10:57.633Z,2.90
2022-07-29T19:13:32.859Z,3.00
2022-07-29T19:16:07.621Z,2.90
2022-07-29T19:18:43.201Z,2.80
2022-07-29T19:21:18.197Z,3.10
2022-07-29T19:24:04.274Z,3.40
2022-07-29T19:26:46.770Z,3.20
2022-07-29T19:29:21.485Z,3.50
2022-07-29T19:31:56.132Z,3.20
2022-07-29T19:34:30.532Z,3.20
2022-07-29T19:37:05.377Z,2.90
2022-07-29T19:39:39.364Z,3.30
2022-07-29T19:42:13.549Z,2.90
2022-07-29T19:44:47.579Z,3.40
2022-07-29T19:47:21.605Z,3.10
2022-07-29T19:49:55.686Z,3.30
2022-07-29T19:52:29.856Z,3.00
2022-07-29T19:55:07.549Z,3.30
2022-07-29T19:57:42.405Z,3.20
2022-07-29T20:00:18.171Z,3.20
2022-07-29T20:02:57.342Z,3.30
2022-07-29T20:05:31.475Z,3.30
2022-07-29T20:08:06.404Z,3.10
2022-07-29T20:10:40.693Z,3.30
2022-07-29T20:13:14.939Z,3.70
2022-07-29T20:15:49.079Z,3.50
2022-07-29T20:18:23.236Z,3.70
2022-07-29T20:20:57.778Z,3.50
2022-07-29T20:23:34.971Z,3.50
2022-07-29T20:26:10.402Z,3.30
2022-07-29T20:28:49.263Z,3.70
2022-07-29T20:31:25.052Z,5.80
2022-07-29T20:34:00.564Z,5.30
2022-07-29T20:36:38.132Z,6.00
2022-07-29T20:39:12.378Z,5.00
2022-07-29T20:41:50.340Z,4.30
2022-07-29T20:44:27.351Z,3.80
2022-07-29T20:47:03.327Z,4.00
2022-07-29T20:49:37.974Z,4.40
2022-07-29T20:52:12.911Z,4.10
2022-07-29T20:54:47.120Z,4.40
2022-07-29T20:57:38.488Z,4.90
2022-07-29T21:00:15.864Z,3.90
2022-07-29T21:02:50.195Z,4.40
2022-07-29T21:05:33.166Z,4.70
2022-07-29T21:08:14.043Z,4.60
2022-07-29T21:10:50.101Z,4.30
2022-07-29T21:13:33.025Z,4.20
2022-07-29T21:16:14.877Z,4.40
2022-07-29T21:18:51.123Z,4.40
2022-07-29T21:21:26.931Z,3.90
2022-07-29T21:24:02.723Z,4.40
2022-07-29T21:26:37.353Z,3.90
2022-07-29T21:29:12.939Z,3.50
2022-07-29T21:31:47.204Z,3.90
2022-07-29T21:34:23.483Z,4.20
2022-07-29T21:36:59.472Z,4.10
2022-07-29T21:39:34.627Z,4.30
2022-07-29T21:42:09.293Z,4.10
2022-07-29T21:44:44.640Z,3.50
2022-07-29T21:47:20.370Z,3.80
2022-07-29T21:49:54.773Z,3.60
2022-07-29T21:52:29.545Z,3.70
2022-07-29T21:55:04.457Z,4.40
2022-07-29T21:57:39.238Z,3.80
2022-07-29T22:00:17.845Z,4.00
2022-07-29T22:02:54.866Z,3.90
2022-07-29T22:05:30.120Z,3.70
2022-07-29T22:08:05.859Z,3.90
2022-07-29T22:10:40.044Z,3.60
2022-07-29T22:13:15.123Z,2.50
2022-07-29T22:15:49.965Z,2.90
2022-07-29T22:18:25.597Z,2.70
2022-07-29T22:20:59.688Z,2.60
2022-07-29T22:23:34.310Z,3.20
2022-07-29T22:26:08.542Z,2.40
2022-07-29T22:28:42.897Z,2.30
2022-07-29T22:31:20.233Z,2.00
2022-07-29T22:33:59.938Z,2.40
2022-07-29T22:36:39.061Z,2.50
2022-07-29T22:39:16.973Z,2.10
2022-07-29T22:41:51.028Z,2.30
2022-07-29T22:44:25.185Z,2.20
2022-07-29T22:47:04.116Z,2.10
2022-07-29T22:49:40.696Z,2.30
2022-07-29T22:52:14.669Z,2.50
2022-07-29T22:54:49.235Z,1.90
2022-07-29T22:57:23.191Z,2.30
2022-07-29T22:59:56.966Z,2.20
2022-07-29T23:02:30.981Z,2.20
2022-07-29T23:05:04.875Z,2.40
2022-07-29T23:07:40.909Z,2.10
2022-07-29T23:10:15.114Z,1.90
2022-07-29T23:12:48.841Z,1.70
2022-07-29T23:15:23.517Z,1.70
2022-07-29T23:17:57.677Z,2.30
2022-07-29T23:20:32.064Z,2.00
2022-07-29T23:23:05.990Z,2.00
2022-07-29T23:25:40.280Z,1.70
2022-07-29T23:28:14.457Z,1.90
2022-07-29T23:30:48.293Z,1.80
2022-07-29T23:33:22.171Z,1.70
2022-07-29T23:35:56.087Z,1.80
2022-07-29T23:38:30.280Z,1.80
2022-07-29T23:41:08.967Z,2.30
2022-07-29T23:43:47.521Z,2.00
2022-07-29T23:46:23.699Z,1.80
2022-07-29T23:48:58.170Z,1.70
2022-07-29T23:51:32.811Z,2.00
2022-07-29T23:54:07.110Z,1.90
2022-07-29T23:56:41.050Z,2.10
2022-07-29T23:59:15.598Z,1.60
